Погода Глиникна неделю

Любушское воеводство, Польша

14 - 20 июля
  • 14июля
    Сегодня
    +15°
    +23°
    Ясно и безоблачно
    ВремяПогодаТемператураВлажностьДавлениеВетер, м/сВероятность осадков
    02:00Облачно с прояснениями+16°C87 %758 мм1.5 м/с2 %
    05:00Ясно и безоблачно+14°C89 %758 мм1.2 м/с2 %
    08:00Ясно и безоблачно+18°C75 %759 мм1.5 м/с2 %
    11:00Ясно и безоблачно+22°C51 %759 мм2.6 м/с1 %
    14:00Ясно и безоблачно+22°C46 %758 мм2.9 м/с3 %
    17:00Ясно и безоблачно+23°C45 %758 мм2.7 м/с10 %
    20:00Небольшая облачность+21°C67 %759 мм1.9 м/с6 %
    23:00Облачно с прояснениями+19°C80 %759 мм1.4 м/с2 %
  • 15июля
    Понедельник
    +18°
    +27°
    Ясно и безоблачно
    ВремяПогодаТемператураВлажностьДавлениеВетер, м/сВероятность осадков
    02:00Облачно с прояснениями+17°C91 %759 мм1.4 м/с1 %
    05:00Ясно и безоблачно+15°C97 %759 мм1.3 м/с2 %
    08:00Ясно и безоблачно+20°C85 %760 мм1.5 м/с2 %
    11:00Небольшая облачность+24°C49 %760 мм2.4 м/с2 %
    14:00Ясно и безоблачно+26°C41 %759 мм3.2 м/с1 %
    17:00Ясно и безоблачно+27°C42 %759 мм2.9 м/с1 %
    20:00Облачно с прояснениями+25°C66 %758 мм1.4 м/с2 %
    23:00Облачно с прояснениями+21°C67 %759 мм1.5 м/с2 %
  • 16июля
    Вторник
    +17°
    +25°
    Небольшая облачность, ливень
    ВремяПогодаТемператураВлажностьДавлениеВетер, м/сВероятность осадков
    02:00Облачно с прояснениями+19°C67 %758 мм2.2 м/с2 %
    05:00Небольшая облачность+19°C76 %757 мм2.1 м/с2 %
    08:00Облачно с прояснениями+22°C73 %757 мм2.7 м/с17 %
    11:00Пасмурно, дожди с грозами+24°C90 %757 мм2.7 м/с75 %
    14:00Небольшая облачность, ливень+23°C87 %757 мм2.8 м/с86 %
    17:00Облачно с прояснениями+23°C68 %757 мм3.4 м/с44 %
    20:00Практически безоблачно+23°C71 %757 мм2.8 м/с38 %
    23:00Ясно и безоблачно+20°C92 %759 мм1.6 м/с12 %
  • 17июля
    Среда
    +16°
    +25°
    Небольшая облачность
    ВремяПогодаТемператураВлажностьДавлениеВетер, м/сВероятность осадков
    02:00Ясно и безоблачно+18°C93 %760 мм1.9 м/с2 %
    05:00Ясно и безоблачно+17°C84 %760 мм1.8 м/с2 %
    08:00Ясно и безоблачно+20°C75 %762 мм2.6 м/с2 %
    11:00Ясно и безоблачно+23°C60 %762 мм3.2 м/с3 %
    14:00Небольшая облачность+24°C48 %762 мм3.9 м/с23 %
    17:00Облачно с прояснениями+25°C43 %762 мм3.5 м/с17 %
    20:00Облачно с прояснениями+23°C58 %763 мм2.1 м/с3 %
    23:00Ясно и безоблачно+20°C78 %764 мм1.4 м/с2 %
  • 18июля
    Четверг
    +18°
    +29°
    Небольшая облачность
    ВремяПогодаТемператураВлажностьДавлениеВетер, м/сВероятность осадков
    02:00Ясно и безоблачно+18°C90 %764 мм1.5 м/с2 %
    05:00Ясно и безоблачно+17°C94 %765 мм1.4 м/с2 %
    08:00Ясно и безоблачно+21°C77 %765 мм1.5 м/с2 %
    11:00Ясно и безоблачно+25°C59 %765 мм2.0 м/с6 %
    14:00Небольшая облачность+27°C46 %764 мм2.6 м/с23 %
    17:00Облачно с прояснениями+28°C46 %763 мм2.9 м/с15 %
    20:00Облачно с прояснениями+26°C59 %763 мм1.8 м/с7 %
    23:00Пасмурно, сплошная облачность+22°C60 %763 мм1.8 м/с2 %
Мы используем cookies
Соглашаюсь